createdAt,value
2019-05-09T00:01:47.302Z,80.38
2019-05-09T00:04:18.723Z,80.18
2019-05-09T00:06:51.314Z,81.08
2019-05-09T00:09:23.769Z,80.90
2019-05-09T00:11:55.280Z,80.90
2019-05-09T00:14:26.818Z,81.25
2019-05-09T00:17:00.319Z,81.35
2019-05-09T00:19:33.470Z,81.26
2019-05-09T00:22:06.344Z,81.64
2019-05-09T00:24:38.871Z,81.53
2019-05-09T00:27:10.375Z,81.54
2019-05-09T00:29:43.923Z,81.63
2019-05-09T00:32:20.012Z,81.73
2019-05-09T00:35:03.859Z,81.96
2019-05-09T00:37:56.695Z,82.45
2019-05-09T00:40:28.229Z,82.75
2019-05-09T00:42:59.766Z,82.46
2019-05-09T00:45:33.422Z,82.68
2019-05-09T00:48:05.193Z,82.66
2019-05-09T00:50:37.208Z,83.64
2019-05-09T00:53:08.722Z,84.39
2019-05-09T00:55:40.283Z,85.91
2019-05-09T00:58:13.537Z,86.80
2019-05-09T01:00:46.035Z,87.03
2019-05-09T01:03:19.608Z,87.78
2019-05-09T01:05:51.247Z,87.72
2019-05-09T01:08:26.284Z,88.55
2019-05-09T01:11:09.363Z,88.54
2019-05-09T01:13:31.108Z,88.52
2019-05-09T01:16:04.537Z,88.47
2019-05-09T01:18:36.316Z,88.67
2019-05-09T01:21:07.884Z,88.92
2019-05-09T01:23:39.488Z,88.71
2019-05-09T01:26:13.028Z,89.44
2019-05-09T01:28:44.399Z,89.69
2019-05-09T01:31:16.846Z,89.68
2019-05-09T01:33:49.914Z,90.00
2019-05-09T01:36:23.466Z,90.25
2019-05-09T01:38:54.718Z,90.37
2019-05-09T01:41:30.816Z,90.76
2019-05-09T01:43:59.693Z,90.52
2019-05-09T01:46:31.267Z,90.96
2019-05-09T01:49:04.490Z,90.87
2019-05-09T01:51:36.045Z,90.58
2019-05-09T01:54:08.455Z,90.87
2019-05-09T01:56:42.615Z,91.48
2019-05-09T01:59:16.226Z,91.70
2019-05-09T02:01:47.881Z,90.79
2019-05-09T02:04:19.557Z,91.25
2019-05-09T02:06:53.720Z,90.97
2019-05-09T02:09:26.722Z,91.18
2019-05-09T02:11:58.500Z,90.75
2019-05-09T02:14:34.259Z,90.72
2019-05-09T02:17:16.486Z,91.48
2019-05-09T02:19:48.233Z,91.95
2019-05-09T02:22:38.879Z,91.47
2019-05-09T02:25:13.036Z,92.29
2019-05-09T02:27:45.629Z,91.45
2019-05-09T02:30:18.591Z,92.04
2019-05-09T02:32:56.463Z,91.42
2019-05-09T02:35:36.562Z,91.20
2019-05-09T02:38:04.924Z,91.37
2019-05-09T02:40:39.278Z,92.09
2019-05-09T02:43:10.426Z,93.04
2019-05-09T02:45:52.802Z,93.14
2019-05-09T02:48:24.308Z,93.79
2019-05-09T02:51:00.493Z,94.49
2019-05-09T02:53:32.368Z,95.26
2019-05-09T02:56:04.197Z,96.50
2019-05-09T02:58:38.848Z,96.17
2019-05-09T03:01:12.197Z,97.15
2019-05-09T03:03:43.779Z,98.82
2019-05-09T03:06:15.351Z,98.19
2019-05-09T03:08:49.078Z,97.23
2019-05-09T03:11:22.241Z,96.93
2019-05-09T03:13:53.906Z,96.49
2019-05-09T03:16:25.448Z,96.55
2019-05-09T03:18:58.478Z,96.47
2019-05-09T03:21:49.302Z,96.60
2019-05-09T03:24:21.619Z,96.17
2019-05-09T03:26:54.781Z,95.56
2019-05-09T03:29:39.726Z,95.22
2019-05-09T03:32:13.346Z,96.11
2019-05-09T03:34:44.884Z,95.92
2019-05-09T03:37:17.799Z,96.01
2019-05-09T03:39:51.992Z,95.82
2019-05-09T03:42:38.156Z,95.49
2019-05-09T03:44:58.115Z,96.12
2019-05-09T03:47:47.893Z,95.56
2019-05-09T03:50:20.972Z,95.82
2019-05-09T03:52:52.557Z,95.49
2019-05-09T03:55:28.168Z,95.38
2019-05-09T03:58:01.762Z,96.11
2019-05-09T04:00:34.662Z,96.54
2019-05-09T04:03:08.243Z,95.49
2019-05-09T04:05:39.893Z,95.95
2019-05-09T04:08:18.427Z,95.94
2019-05-09T04:10:52.473Z,96.48
2019-05-09T04:13:30.461Z,96.24
2019-05-09T04:16:02.316Z,96.60
2019-05-09T04:18:34.861Z,97.08
2019-05-09T04:21:08.391Z,97.42
2019-05-09T04:23:39.744Z,98.28
2019-05-09T04:26:29.541Z,97.47
2019-05-09T04:29:02.199Z,96.66
2019-05-09T04:31:33.722Z,96.73
2019-05-09T04:34:07.686Z,97.14
2019-05-09T04:36:39.647Z,96.72
2019-05-09T04:39:20.933Z,96.46
2019-05-09T04:41:48.436Z,97.40
2019-05-09T04:44:21.869Z,97.07
2019-05-09T04:46:54.099Z,97.29
2019-05-09T04:49:29.722Z,97.40
2019-05-09T04:52:00.122Z,96.27
2019-05-09T04:54:32.734Z,96.51
2019-05-09T04:57:04.229Z,95.83
2019-05-09T04:59:37.427Z,95.38
2019-05-09T05:02:18.259Z,95.38
2019-05-09T05:04:51.080Z,96.42
2019-05-09T05:07:22.671Z,96.91
2019-05-09T05:09:54.256Z,95.41
2019-05-09T05:12:27.762Z,95.49
2019-05-09T05:14:59.049Z,96.43
2019-05-09T05:17:30.885Z,95.90
2019-05-09T05:20:08.204Z,95.36
2019-05-09T05:22:43.706Z,96.16
2019-05-09T05:25:17.719Z,96.38
2019-05-09T05:27:48.514Z,96.31
2019-05-09T05:30:20.051Z,96.10
2019-05-09T05:32:53.244Z,96.28
2019-05-09T05:35:37.558Z,96.13
2019-05-09T05:38:10.426Z,96.13
2019-05-09T05:40:46.107Z,96.52
2019-05-09T05:43:17.293Z,96.92
2019-05-09T05:45:50.637Z,97.77
2019-05-09T05:48:27.923Z,98.43
2019-05-09T05:50:59.574Z,98.38
2019-05-09T05:53:31.099Z,99.41
2019-05-09T05:56:02.695Z,99.34
2019-05-09T05:58:34.305Z,100.00
2019-05-09T06:01:08.060Z,100.00
2019-05-09T06:03:40.087Z,99.87
2019-05-09T06:06:11.692Z,99.64
2019-05-09T06:08:43.242Z,99.69
2019-05-09T06:11:14.790Z,100.00
2019-05-09T06:13:54.468Z,100.00
2019-05-09T06:16:22.352Z,100.00
2019-05-09T06:18:58.473Z,100.00
2019-05-09T06:21:29.278Z,99.56
2019-05-09T06:24:03.120Z,99.36
2019-05-09T06:26:37.333Z,98.81
2019-05-09T06:29:08.976Z,99.34
2019-05-09T06:31:41.584Z,98.38
2019-05-09T06:34:14.317Z,98.20
2019-05-09T06:36:45.819Z,99.07
2019-05-09T06:39:18.168Z,98.54
2019-05-09T06:41:49.641Z,97.84
2019-05-09T06:44:28.619Z,98.14
2019-05-09T06:47:18.496Z,98.17
2019-05-09T06:49:51.714Z,97.25
2019-05-09T06:52:23.152Z,96.34
2019-05-09T06:54:54.573Z,95.19
2019-05-09T06:57:28.123Z,95.26
2019-05-09T06:59:59.194Z,94.86
2019-05-09T07:02:36.009Z,94.97
2019-05-09T07:05:17.954Z,94.28
2019-05-09T07:07:57.635Z,94.97
2019-05-09T07:10:29.141Z,95.21
2019-05-09T07:13:01.578Z,95.10
2019-05-09T07:15:33.061Z,95.21
2019-05-09T07:18:05.455Z,94.65
2019-05-09T07:20:38.078Z,94.10
2019-05-09T07:23:11.478Z,93.19
2019-05-09T07:25:53.292Z,92.41
2019-05-09T07:28:24.795Z,91.85
2019-05-09T07:30:57.768Z,91.74
2019-05-09T07:33:33.549Z,91.96
2019-05-09T07:36:08.388Z,91.44
2019-05-09T07:38:39.181Z,90.95
2019-05-09T07:41:12.650Z,91.34
2019-05-09T07:43:44.134Z,91.71
2019-05-09T07:46:19.884Z,89.86
2019-05-09T07:48:52.899Z,90.37
2019-05-09T07:51:24.340Z,88.97
2019-05-09T07:53:55.816Z,88.72
2019-05-09T07:56:28.562Z,85.87
2019-05-09T07:59:00.133Z,87.19
2019-05-09T08:01:31.607Z,86.28
2019-05-09T08:04:03.111Z,84.69
2019-05-09T08:06:37.921Z,85.06
2019-05-09T08:09:08.799Z,83.66
2019-05-09T08:11:40.295Z,84.37
2019-05-09T08:14:11.765Z,84.86
2019-05-09T08:16:43.217Z,86.78
2019-05-09T08:19:17.937Z,86.06
2019-05-09T08:21:48.580Z,86.63
2019-05-09T08:24:21.190Z,86.29
2019-05-09T08:26:52.695Z,84.89
2019-05-09T08:29:24.145Z,88.06
2019-05-09T08:31:58.045Z,88.69
2019-05-09T08:34:28.719Z,86.37
2019-05-09T08:37:00.182Z,87.66
2019-05-09T08:39:31.606Z,85.81
2019-05-09T08:42:03.078Z,84.59
2019-05-09T08:44:34.536Z,83.37
2019-05-09T08:47:07.863Z,83.77
2019-05-09T08:49:47.365Z,84.25
2019-05-09T08:52:19.855Z,85.75
2019-05-09T08:54:57.686Z,86.25
2019-05-09T08:57:28.955Z,87.12
2019-05-09T09:00:00.665Z,87.30
2019-05-09T09:02:32.351Z,87.81
2019-05-09T09:05:08.330Z,87.25
2019-05-09T09:07:38.124Z,86.04
2019-05-09T09:10:10.277Z,84.21
2019-05-09T09:12:41.747Z,84.62
2019-05-09T09:15:13.447Z,85.54
2019-05-09T09:17:48.865Z,84.65
2019-05-09T09:20:19.520Z,86.05
2019-05-09T09:22:50.964Z,84.85
2019-05-09T09:25:22.437Z,86.17
2019-05-09T09:27:54.764Z,85.02
2019-05-09T09:30:29.240Z,84.77
2019-05-09T09:33:00.655Z,84.67
2019-05-09T09:35:32.089Z,83.44
2019-05-09T09:38:03.508Z,82.02
2019-05-09T09:40:34.951Z,84.09
2019-05-09T09:43:09.304Z,84.72
2019-05-09T09:45:43.129Z,84.33
2019-05-09T09:48:14.597Z,83.45
2019-05-09T09:50:51.470Z,82.54
2019-05-09T09:53:20.314Z,83.30
2019-05-09T09:55:52.755Z,84.84
2019-05-09T09:58:27.285Z,85.04
2019-05-09T10:01:09.529Z,85.06
2019-05-09T10:03:43.081Z,85.34
2019-05-09T10:06:16.792Z,82.96
2019-05-09T10:08:48.971Z,84.34
2019-05-09T10:11:20.737Z,82.09
2019-05-09T10:13:54.157Z,83.43
2019-05-09T10:16:50.024Z,82.57
2019-05-09T10:19:24.107Z,82.41
2019-05-09T10:22:01.930Z,83.99
2019-05-09T10:24:35.414Z,83.64
2019-05-09T10:27:12.587Z,83.78
2019-05-09T10:29:44.062Z,82.17
2019-05-09T10:32:23.204Z,82.54
2019-05-09T10:34:58.090Z,81.57
2019-05-09T10:37:29.797Z,77.84
2019-05-09T10:40:01.248Z,78.63
2019-05-09T10:42:34.296Z,80.76
2019-05-09T10:45:27.132Z,80.46
2019-05-09T10:48:01.421Z,79.73
2019-05-09T10:50:34.736Z,80.78
2019-05-09T10:53:08.139Z,80.66
2019-05-09T10:55:42.671Z,80.01
2019-05-09T10:58:14.162Z,80.35
2019-05-09T11:00:48.304Z,80.53
2019-05-09T11:03:21.959Z,79.96
2019-05-09T11:05:59.210Z,81.25
2019-05-09T11:08:30.734Z,78.12
2019-05-09T11:11:06.100Z,81.25
2019-05-09T11:13:38.932Z,81.62
2019-05-09T11:16:10.662Z,81.58
2019-05-09T11:18:42.107Z,80.71
2019-05-09T11:21:13.565Z,82.47
2019-05-09T11:23:44.990Z,81.94
2019-05-09T11:26:17.959Z,82.69
2019-05-09T11:28:50.850Z,82.02
2019-05-09T11:31:29.967Z,82.54
2019-05-09T11:34:02.658Z,82.27
2019-05-09T11:36:34.147Z,81.57
2019-05-09T11:39:10.708Z,81.69
2019-05-09T11:41:41.482Z,81.93
2019-05-09T11:44:13.020Z,83.18
2019-05-09T11:46:44.562Z,82.58
2019-05-09T11:49:18.219Z,82.31
2019-05-09T11:51:49.656Z,82.58
2019-05-09T11:54:21.249Z,83.68
2019-05-09T11:56:52.665Z,84.02
2019-05-09T11:59:24.187Z,85.30
2019-05-09T12:01:58.381Z,84.13
2019-05-09T12:04:28.829Z,85.26
2019-05-09T12:07:00.340Z,87.28
2019-05-09T12:09:31.881Z,87.53
2019-05-09T12:12:03.339Z,87.53
2019-05-09T12:14:34.770Z,87.25
2019-05-09T12:17:08.345Z,87.07
2019-05-09T12:19:40.023Z,87.10
2019-05-09T12:22:11.461Z,87.20
2019-05-09T12:24:43.945Z,88.04
2019-05-09T12:27:15.392Z,89.72
2019-05-09T12:29:48.380Z,88.60
2019-05-09T12:32:20.143Z,87.68
2019-05-09T12:34:52.629Z,86.56
2019-05-09T12:37:24.288Z,87.93
2019-05-09T12:39:58.552Z,88.01
2019-05-09T12:42:30.359Z,86.48
2019-05-09T12:45:01.895Z,86.49
2019-05-09T12:47:33.366Z,86.03
2019-05-09T12:50:08.616Z,87.46
2019-05-09T12:52:41.483Z,87.16
2019-05-09T12:55:13.215Z,88.11
2019-05-09T12:57:44.745Z,88.52
2019-05-09T13:00:18.683Z,87.01
2019-05-09T13:02:52.909Z,87.21
2019-05-09T13:05:24.413Z,86.25
2019-05-09T13:07:58.482Z,89.22
2019-05-09T13:10:32.991Z,86.20
2019-05-09T13:13:04.596Z,86.56
2019-05-09T13:15:38.431Z,86.90
2019-05-09T13:18:21.984Z,85.77
2019-05-09T13:20:43.942Z,85.24
2019-05-09T13:23:17.969Z,86.46
2019-05-09T13:25:50.389Z,85.16
2019-05-09T13:28:22.102Z,85.55
2019-05-09T13:30:53.695Z,84.69
2019-05-09T13:33:25.254Z,85.19
2019-05-09T13:35:58.329Z,84.18
2019-05-09T13:38:31.519Z,85.66
2019-05-09T13:41:03.113Z,86.82
2019-05-09T13:43:34.678Z,87.70
2019-05-09T13:46:09.555Z,89.09
2019-05-09T13:49:04.338Z,88.83
2019-05-09T13:51:18.433Z,88.96
2019-05-09T13:53:49.398Z,89.72
2019-05-09T13:56:28.083Z,89.86
2019-05-09T13:58:58.389Z,89.39
2019-05-09T14:01:33.198Z,90.38
2019-05-09T14:04:04.806Z,87.44
2019-05-09T14:06:38.798Z,88.73
2019-05-09T14:09:11.777Z,88.75
2019-05-09T14:11:43.491Z,87.85
2019-05-09T14:14:17.807Z,88.14
2019-05-09T14:16:50.958Z,88.17
2019-05-09T14:19:31.326Z,87.18
2019-05-09T14:21:58.608Z,87.94
2019-05-09T14:24:30.506Z,88.38
2019-05-09T14:27:02.126Z,88.91
2019-05-09T14:29:33.745Z,87.89
2019-05-09T14:32:05.890Z,89.76
2019-05-09T14:34:42.174Z,89.48
2019-05-09T14:37:13.196Z,88.81
2019-05-09T14:39:55.886Z,89.28
2019-05-09T14:42:20.750Z,89.42
2019-05-09T14:44:52.379Z,89.26
2019-05-09T14:47:27.698Z,89.47
2019-05-09T14:49:59.492Z,89.50
2019-05-09T14:52:31.354Z,89.37
2019-05-09T14:55:08.227Z,88.58
2019-05-09T14:57:40.839Z,86.22
2019-05-09T15:00:12.813Z,85.24
2019-05-09T15:02:44.312Z,85.68
2019-05-09T15:05:18.618Z,84.63
2019-05-09T15:07:53.626Z,84.35
2019-05-09T15:10:24.146Z,84.01
2019-05-09T15:12:55.736Z,84.21
2019-05-09T15:15:32.004Z,84.78
2019-05-09T15:18:00.504Z,84.83
2019-05-09T15:20:32.001Z,84.90
2019-05-09T15:23:03.564Z,85.71
2019-05-09T15:25:35.209Z,85.52
2019-05-09T15:28:08.203Z,86.02
2019-05-09T15:30:41.964Z,85.97
2019-05-09T15:33:13.628Z,86.38
2019-05-09T15:35:48.549Z,86.15
2019-05-09T15:38:22.327Z,87.01
2019-05-09T15:40:52.727Z,85.75
2019-05-09T15:43:26.846Z,85.95
2019-05-09T15:46:08.355Z,85.52
2019-05-09T15:48:40.628Z,85.70
2019-05-09T15:51:12.087Z,85.54
2019-05-09T15:53:43.634Z,85.93
2019-05-09T15:56:18.586Z,86.38
2019-05-09T15:58:49.516Z,86.61
2019-05-09T16:01:20.932Z,86.65
2019-05-09T16:03:52.382Z,86.12
2019-05-09T16:06:23.858Z,86.10
2019-05-09T16:08:58.369Z,85.91
2019-05-09T16:11:32.156Z,85.21
2019-05-09T16:14:04.507Z,85.41
2019-05-09T16:16:38.594Z,85.74
2019-05-09T16:19:10.019Z,86.11
2019-05-09T16:21:47.544Z,86.25
2019-05-09T16:24:19.016Z,86.13
2019-05-09T16:26:54.788Z,86.37
2019-05-09T16:29:28.528Z,86.40
2019-05-09T16:31:59.509Z,85.95
2019-05-09T16:34:30.932Z,86.65
2019-05-09T16:37:02.506Z,86.54
2019-05-09T16:39:34.931Z,85.70
2019-05-09T16:42:06.610Z,84.92
2019-05-09T16:44:41.749Z,85.38
2019-05-09T16:47:11.307Z,83.56
2019-05-09T16:49:43.324Z,82.69
2019-05-09T16:52:14.792Z,83.21
2019-05-09T16:54:50.011Z,83.57
2019-05-09T16:57:22.035Z,83.96
2019-05-09T16:59:53.493Z,84.65
2019-05-09T17:02:28.770Z,85.08
2019-05-09T17:05:00.145Z,86.17
2019-05-09T17:07:31.618Z,86.08
2019-05-09T17:10:03.267Z,86.69
2019-05-09T17:12:35.743Z,87.14
2019-05-09T17:15:09.917Z,86.66
2019-05-09T17:17:41.448Z,85.55
2019-05-09T17:20:19.143Z,84.82
2019-05-09T17:23:14.496Z,84.55
2019-05-09T17:25:41.958Z,84.62
2019-05-09T17:28:13.519Z,84.32
2019-05-09T17:30:45.049Z,84.06
2019-05-09T17:33:16.462Z,84.04
2019-05-09T17:35:49.869Z,84.70
2019-05-09T17:38:21.362Z,85.78
2019-05-09T17:40:52.953Z,86.42
2019-05-09T17:43:24.412Z,86.66
2019-05-09T17:45:58.194Z,86.54
2019-05-09T17:48:29.234Z,86.85
2019-05-09T17:51:01.589Z,87.12
2019-05-09T17:53:34.064Z,87.18
2019-05-09T17:56:10.821Z,87.26
2019-05-09T17:58:40.086Z,87.73
2019-05-09T18:01:11.649Z,87.79
2019-05-09T18:03:44.217Z,88.29
2019-05-09T18:06:15.877Z,88.57
2019-05-09T18:08:50.569Z,88.51
2019-05-09T18:11:23.585Z,88.89
2019-05-09T18:13:56.318Z,87.90
2019-05-09T18:16:28.965Z,88.13
2019-05-09T18:19:01.221Z,88.47
2019-05-09T18:21:47.273Z,88.57
2019-05-09T18:24:05.937Z,87.53
2019-05-09T18:26:38.298Z,87.44
2019-05-09T18:29:11.056Z,87.44
2019-05-09T18:31:44.200Z,87.37
2019-05-09T18:34:18.414Z,87.76
2019-05-09T18:36:50.428Z,87.48
2019-05-09T18:39:22.811Z,87.53
2019-05-09T18:41:57.768Z,87.80
2019-05-09T18:44:28.982Z,87.68
2019-05-09T18:47:00.433Z,87.79
2019-05-09T18:49:31.876Z,87.69
2019-05-09T18:52:04.356Z,87.69
2019-05-09T18:54:36.943Z,87.86
2019-05-09T18:57:08.346Z,87.81
2019-05-09T18:59:40.899Z,87.65
2019-05-09T19:02:12.381Z,87.47
2019-05-09T19:04:44.051Z,87.84
2019-05-09T19:07:22.316Z,88.03
2019-05-09T19:09:48.897Z,88.54
2019-05-09T19:12:21.462Z,88.53
2019-05-09T19:14:53.032Z,88.56
2019-05-09T19:17:29.922Z,88.83
2019-05-09T19:20:02.978Z,88.93
2019-05-09T19:22:34.455Z,88.91
2019-05-09T19:25:07.262Z,89.06
2019-05-09T19:27:40.730Z,89.32
2019-05-09T19:30:12.789Z,89.34
2019-05-09T19:32:44.223Z,89.64
2019-05-09T19:35:15.797Z,89.58
2019-05-09T19:37:47.348Z,90.03
2019-05-09T19:40:20.273Z,89.89
2019-05-09T19:42:53.007Z,89.77
2019-05-09T19:45:24.455Z,89.88
2019-05-09T19:47:56.974Z,89.95
2019-05-09T19:50:29.441Z,90.00
2019-05-09T19:53:00.838Z,89.75
2019-05-09T19:55:32.361Z,89.85
2019-05-09T19:58:06.872Z,90.05
2019-05-09T20:00:38.260Z,90.07
2019-05-09T20:03:09.698Z,90.34
2019-05-09T20:05:42.154Z,90.23
2019-05-09T20:08:14.651Z,90.57
2019-05-09T20:11:05.080Z,90.56
2019-05-09T20:13:38.084Z,90.73
2019-05-09T20:16:09.483Z,91.01
2019-05-09T20:18:42.934Z,91.12
2019-05-09T20:21:14.388Z,91.26
2019-05-09T20:23:45.855Z,91.23
2019-05-09T20:26:17.257Z,91.05
2019-05-09T20:28:48.600Z,91.04
2019-05-09T20:31:23.165Z,91.05
2019-05-09T20:33:54.497Z,91.12
2019-05-09T20:36:25.921Z,91.17
2019-05-09T20:38:58.582Z,91.36
2019-05-09T20:41:30.092Z,91.53
2019-05-09T20:44:01.661Z,91.68
2019-05-09T20:46:34.335Z,91.52
2019-05-09T20:49:05.921Z,91.67
2019-05-09T20:51:37.522Z,92.03
2019-05-09T20:54:20.543Z,92.25
2019-05-09T20:56:42.408Z,92.21
2019-05-09T20:59:15.092Z,92.50
2019-05-09T21:01:46.756Z,92.71
2019-05-09T21:04:19.514Z,92.67
2019-05-09T21:06:51.266Z,92.63
2019-05-09T21:09:22.983Z,92.77
2019-05-09T21:11:54.687Z,92.79
2019-05-09T21:14:26.370Z,92.94
2019-05-09T21:16:58.085Z,93.08
2019-05-09T21:19:29.813Z,93.22
2019-05-09T21:22:01.670Z,93.54
2019-05-09T21:24:33.368Z,93.77
2019-05-09T21:27:04.965Z,93.77
2019-05-09T21:29:37.670Z,93.90
2019-05-09T21:32:09.470Z,93.78
2019-05-09T21:34:41.063Z,93.89
2019-05-09T21:37:14.005Z,93.93
2019-05-09T21:39:45.760Z,93.66
2019-05-09T21:42:18.319Z,93.80
2019-05-09T21:44:50.909Z,93.55
2019-05-09T21:47:22.423Z,93.40
2019-05-09T21:49:53.914Z,93.31
2019-05-09T21:52:25.415Z,93.16
2019-05-09T21:54:56.951Z,92.71
2019-05-09T21:57:28.480Z,92.51
2019-05-09T21:59:59.980Z,92.31
2019-05-09T22:02:31.472Z,92.18
2019-05-09T22:05:03.401Z,92.13
2019-05-09T22:07:36.237Z,92.46
2019-05-09T22:10:08.566Z,92.34
2019-05-09T22:12:40.107Z,92.49
2019-05-09T22:15:12.975Z,92.31
2019-05-09T22:17:45.467Z,92.27
2019-05-09T22:20:17.209Z,92.33
2019-05-09T22:22:49.322Z,92.41
2019-05-09T22:25:20.831Z,92.46
2019-05-09T22:27:52.347Z,92.69
2019-05-09T22:30:23.948Z,92.63
2019-05-09T22:32:55.556Z,92.82
2019-05-09T22:35:27.065Z,92.63
2019-05-09T22:37:58.429Z,92.59
2019-05-09T22:40:29.820Z,92.79
2019-05-09T22:43:02.421Z,92.77
2019-05-09T22:45:33.979Z,92.62
2019-05-09T22:48:05.417Z,92.58
2019-05-09T22:50:36.949Z,92.33
2019-05-09T22:53:08.491Z,91.88
2019-05-09T22:55:44.692Z,91.59
2019-05-09T22:58:16.141Z,91.42
2019-05-09T23:00:48.007Z,91.08
2019-05-09T23:03:19.404Z,91.06
2019-05-09T23:05:50.790Z,90.76
2019-05-09T23:08:22.322Z,90.39
2019-05-09T23:10:53.839Z,90.34
2019-05-09T23:13:25.279Z,90.43
2019-05-09T23:15:57.698Z,90.13
2019-05-09T23:18:29.153Z,90.38
2019-05-09T23:21:00.578Z,90.10
2019-05-09T23:23:37.366Z,90.10
2019-05-09T23:26:08.915Z,89.78
2019-05-09T23:28:41.497Z,89.88
2019-05-09T23:31:14.517Z,89.76
2019-05-09T23:33:45.949Z,89.57
2019-05-09T23:36:17.490Z,89.55
2019-05-09T23:39:06.846Z,89.33
2019-05-09T23:41:38.318Z,89.46
2019-05-09T23:44:10.765Z,89.56
2019-05-09T23:46:42.167Z,89.30
2019-05-09T23:49:13.643Z,89.29
2019-05-09T23:51:46.849Z,89.37
2019-05-09T23:54:47.824Z,89.51
2019-05-09T23:57:31.281Z,89.40
